sensor_id;sensor_type;location;lat;lon;timestamp;temperature;humidity
47618;DHT22;33336;36.728;-4.414;2023-02-15T00:04:38;15.10;99.90
47618;DHT22;33336;36.728;-4.414;2023-02-15T00:09:51;15.10;99.90
47618;DHT22;33336;36.728;-4.414;2023-02-15T00:14:55;15.00;99.90
47618;DHT22;33336;36.728;-4.414;2023-02-15T00:19:59;14.80;99.90
47618;DHT22;33336;36.728;-4.414;2023-02-15T00:25:01;14.70;99.90
47618;DHT22;33336;36.728;-4.414;2023-02-15T00:30:10;14.80;99.90
47618;DHT22;33336;36.728;-4.414;2023-02-15T00:35:13;14.80;99.90
47618;DHT22;33336;36.728;-4.414;2023-02-15T00:40:17;14.80;99.90
47618;DHT22;33336;36.728;-4.414;2023-02-15T00:45:21;14.60;99.90
47618;DHT22;33336;36.728;-4.414;2023-02-15T00:50:26;14.50;99.90
47618;DHT22;33336;36.728;-4.414;2023-02-15T00:55:28;14.60;99.90
47618;DHT22;33336;36.728;-4.414;2023-02-15T01:00:34;14.20;99.90
47618;DHT22;33336;36.728;-4.414;2023-02-15T01:05:37;14.20;99.90
47618;DHT22;33336;36.728;-4.414;2023-02-15T01:10:41;14.20;99.90
47618;DHT22;33336;36.728;-4.414;2023-02-15T01:15:52;14.20;99.90
47618;DHT22;33336;36.728;-4.414;2023-02-15T01:20:56;14.20;99.90
47618;DHT22;33336;36.728;-4.414;2023-02-15T01:26:01;14.20;99.90
47618;DHT22;33336;36.728;-4.414;2023-02-15T01:31:08;14.10;99.90
47618;DHT22;33336;36.728;-4.414;2023-02-15T01:36:11;14.00;99.90
47618;DHT22;33336;36.728;-4.414;2023-02-15T01:41:15;13.80;99.90
47618;DHT22;33336;36.728;-4.414;2023-02-15T01:46:31;13.80;99.90
47618;DHT22;33336;36.728;-4.414;2023-02-15T01:51:38;13.40;99.90
47618;DHT22;33336;36.728;-4.414;2023-02-15T01:56:42;13.40;99.90
47618;DHT22;33336;36.728;-4.414;2023-02-15T02:01:48;13.40;99.90
47618;DHT22;33336;36.728;-4.414;2023-02-15T02:06:52;13.20;99.90
47618;DHT22;33336;36.728;-4.414;2023-02-15T02:11:57;13.10;99.90
47618;DHT22;33336;36.728;-4.414;2023-02-15T02:17:06;13.30;99.90
47618;DHT22;33336;36.728;-4.414;2023-02-15T02:22:40;13.20;99.90
47618;DHT22;33336;36.728;-4.414;2023-02-15T02:27:51;13.20;99.90
47618;DHT22;33336;36.728;-4.414;2023-02-15T02:33:26;13.20;99.90
47618;DHT22;33336;36.728;-4.414;2023-02-15T02:38:42;13.20;99.90
47618;DHT22;33336;36.728;-4.414;2023-02-15T02:43:54;13.10;99.90
47618;DHT22;33336;36.728;-4.414;2023-02-15T02:48:59;13.20;99.90
47618;DHT22;33336;36.728;-4.414;2023-02-15T02:54:05;13.30;99.90
47618;DHT22;33336;36.728;-4.414;2023-02-15T02:59:12;13.20;99.90
47618;DHT22;33336;36.728;-4.414;2023-02-15T03:04:24;13.20;99.90
47618;DHT22;33336;36.728;-4.414;2023-02-15T03:09:31;12.90;99.90
47618;DHT22;33336;36.728;-4.414;2023-02-15T03:14:46;13.00;99.90
47618;DHT22;33336;36.728;-4.414;2023-02-15T03:19:52;13.00;99.90
47618;DHT22;33336;36.728;-4.414;2023-02-15T03:24:59;13.10;99.90
47618;DHT22;33336;36.728;-4.414;2023-02-15T03:30:06;13.20;99.90
47618;DHT22;33336;36.728;-4.414;2023-02-15T03:35:12;13.20;99.90
47618;DHT22;33336;36.728;-4.414;2023-02-15T03:40:19;13.20;99.90
47618;DHT22;33336;36.728;-4.414;2023-02-15T03:45:45;13.20;99.90
47618;DHT22;33336;36.728;-4.414;2023-02-15T03:51:00;13.00;99.90
47618;DHT22;33336;36.728;-4.414;2023-02-15T03:56:23;13.10;99.90
47618;DHT22;33336;36.728;-4.414;2023-02-15T04:01:30;13.10;99.90
47618;DHT22;33336;36.728;-4.414;2023-02-15T04:06:53;13.00;99.90
47618;DHT22;33336;36.728;-4.414;2023-02-15T04:11:56;13.00;99.90
47618;DHT22;33336;36.728;-4.414;2023-02-15T04:17:00;12.80;99.90
47618;DHT22;33336;36.728;-4.414;2023-02-15T04:22:05;12.90;99.90
47618;DHT22;33336;36.728;-4.414;2023-02-15T04:27:26;12.80;99.90
47618;DHT22;33336;36.728;-4.414;2023-02-15T04:32:29;12.90;99.90
47618;DHT22;33336;36.728;-4.414;2023-02-15T04:37:35;12.80;99.90
47618;DHT22;33336;36.728;-4.414;2023-02-15T04:42:38;12.70;99.90
47618;DHT22;33336;36.728;-4.414;2023-02-15T04:47:41;12.60;99.90
47618;DHT22;33336;36.728;-4.414;2023-02-15T04:52:45;12.70;99.90
47618;DHT22;33336;36.728;-4.414;2023-02-15T04:57:49;12.90;99.90
47618;DHT22;33336;36.728;-4.414;2023-02-15T05:02:52;12.90;99.90
47618;DHT22;33336;36.728;-4.414;2023-02-15T05:07:56;12.70;99.90
47618;DHT22;33336;36.728;-4.414;2023-02-15T05:12:59;12.70;99.90
47618;DHT22;33336;36.728;-4.414;2023-02-15T05:18:02;12.60;99.90
47618;DHT22;33336;36.728;-4.414;2023-02-15T05:23:06;12.70;99.90
47618;DHT22;33336;36.728;-4.414;2023-02-15T05:28:10;12.40;99.90
47618;DHT22;33336;36.728;-4.414;2023-02-15T05:33:22;12.60;99.90
47618;DHT22;33336;36.728;-4.414;2023-02-15T05:38:27;12.50;99.90
47618;DHT22;33336;36.728;-4.414;2023-02-15T05:43:30;12.50;99.90
47618;DHT22;33336;36.728;-4.414;2023-02-15T05:48:34;12.50;99.90
47618;DHT22;33336;36.728;-4.414;2023-02-15T05:53:39;12.20;99.90
47618;DHT22;33336;36.728;-4.414;2023-02-15T05:58:43;12.50;99.90
47618;DHT22;33336;36.728;-4.414;2023-02-15T06:03:46;12.50;99.90
47618;DHT22;33336;36.728;-4.414;2023-02-15T06:08:50;12.50;99.90
47618;DHT22;33336;36.728;-4.414;2023-02-15T06:13:53;12.50;99.90
47618;DHT22;33336;36.728;-4.414;2023-02-15T06:18:56;12.60;99.90
47618;DHT22;33336;36.728;-4.414;2023-02-15T06:24:01;12.30;99.90
47618;DHT22;33336;36.728;-4.414;2023-02-15T06:29:05;12.40;99.90
47618;DHT22;33336;36.728;-4.414;2023-02-15T06:34:08;12.60;99.90
47618;DHT22;33336;36.728;-4.414;2023-02-15T06:39:12;12.70;99.90
47618;DHT22;33336;36.728;-4.414;2023-02-15T06:44:15;12.60;99.90
47618;DHT22;33336;36.728;-4.414;2023-02-15T06:49:19;12.50;99.90
47618;DHT22;33336;36.728;-4.414;2023-02-15T06:54:23;12.40;99.90
47618;DHT22;33336;36.728;-4.414;2023-02-15T06:59:27;12.20;99.90
47618;DHT22;33336;36.728;-4.414;2023-02-15T07:04:30;12.40;99.90
47618;DHT22;33336;36.728;-4.414;2023-02-15T07:09:34;12.50;99.90
47618;DHT22;33336;36.728;-4.414;2023-02-15T07:14:37;12.60;99.90
47618;DHT22;33336;36.728;-4.414;2023-02-15T07:19:42;12.60;99.90
47618;DHT22;33336;36.728;-4.414;2023-02-15T07:24:46;12.60;99.90
47618;DHT22;33336;36.728;-4.414;2023-02-15T07:29:51;12.70;99.90
47618;DHT22;33336;36.728;-4.414;2023-02-15T07:34:53;12.80;99.90
47618;DHT22;33336;36.728;-4.414;2023-02-15T07:39:58;12.90;99.90
47618;DHT22;33336;36.728;-4.414;2023-02-15T07:45:01;12.90;99.90
47618;DHT22;33336;36.728;-4.414;2023-02-15T07:50:05;13.00;99.90
47618;DHT22;33336;36.728;-4.414;2023-02-15T07:55:09;13.10;99.90
47618;DHT22;33336;36.728;-4.414;2023-02-15T08:00:15;13.20;99.90
47618;DHT22;33336;36.728;-4.414;2023-02-15T08:05:17;13.50;99.90
47618;DHT22;33336;36.728;-4.414;2023-02-15T08:10:22;13.50;99.90
47618;DHT22;33336;36.728;-4.414;2023-02-15T08:15:48;13.70;99.90
47618;DHT22;33336;36.728;-4.414;2023-02-15T08:20:52;13.50;99.90
47618;DHT22;33336;36.728;-4.414;2023-02-15T08:25:59;14.00;99.90
47618;DHT22;33336;36.728;-4.414;2023-02-15T08:31:06;14.00;99.90
47618;DHT22;33336;36.728;-4.414;2023-02-15T08:36:11;14.40;99.90
47618;DHT22;33336;36.728;-4.414;2023-02-15T08:41:19;14.50;99.90
47618;DHT22;33336;36.728;-4.414;2023-02-15T08:46:23;14.60;99.90
47618;DHT22;33336;36.728;-4.414;2023-02-15T08:51:28;14.90;99.90
47618;DHT22;33336;36.728;-4.414;2023-02-15T08:56:35;15.00;99.90
47618;DHT22;33336;36.728;-4.414;2023-02-15T09:01:38;15.10;99.90
47618;DHT22;33336;36.728;-4.414;2023-02-15T09:06:41;15.40;99.90
47618;DHT22;33336;36.728;-4.414;2023-02-15T09:11:48;15.40;99.90
47618;DHT22;33336;36.728;-4.414;2023-02-15T09:16:52;15.60;99.80
47618;DHT22;33336;36.728;-4.414;2023-02-15T09:21:55;16.00;99.10
47618;DHT22;33336;36.728;-4.414;2023-02-15T09:27:01;16.40;98.80
47618;DHT22;33336;36.728;-4.414;2023-02-15T09:32:04;16.70;98.40
47618;DHT22;33336;36.728;-4.414;2023-02-15T09:37:08;16.70;97.80
47618;DHT22;33336;36.728;-4.414;2023-02-15T09:48:15;16.70;97.40
47618;DHT22;33336;36.728;-4.414;2023-02-15T09:53:36;17.00;97.30
47618;DHT22;33336;36.728;-4.414;2023-02-15T09:58:47;16.80;96.60
47618;DHT22;33336;36.728;-4.414;2023-02-15T10:04:25;17.30;96.70
47618;DHT22;33336;36.728;-4.414;2023-02-15T10:09:39;17.40;96.20
47618;DHT22;33336;36.728;-4.414;2023-02-15T10:15:10;17.20;96.60
47618;DHT22;33336;36.728;-4.414;2023-02-15T10:20:24;17.50;96.50
47618;DHT22;33336;36.728;-4.414;2023-02-15T10:25:36;17.50;96.70
47618;DHT22;33336;36.728;-4.414;2023-02-15T10:30:47;17.60;96.30
47618;DHT22;33336;36.728;-4.414;2023-02-15T10:35:58;17.60;97.00
47618;DHT22;33336;36.728;-4.414;2023-02-15T10:41:14;18.00;96.70
47618;DHT22;33336;36.728;-4.414;2023-02-15T10:46:32;18.50;96.10
47618;DHT22;33336;36.728;-4.414;2023-02-15T10:51:48;18.90;95.50
47618;DHT22;33336;36.728;-4.414;2023-02-15T10:57:02;18.70;93.70
47618;DHT22;33336;36.728;-4.414;2023-02-15T11:02:15;19.00;94.50
47618;DHT22;33336;36.728;-4.414;2023-02-15T11:07:23;19.20;93.90
47618;DHT22;33336;36.728;-4.414;2023-02-15T11:12:29;18.90;93.60
47618;DHT22;33336;36.728;-4.414;2023-02-15T11:17:40;19.30;93.70
47618;DHT22;33336;36.728;-4.414;2023-02-15T11:22:48;19.10;92.70
47618;DHT22;33336;36.728;-4.414;2023-02-15T11:27:53;18.90;92.80
47618;DHT22;33336;36.728;-4.414;2023-02-15T11:32:59;19.30;93.10
47618;DHT22;33336;36.728;-4.414;2023-02-15T11:38:10;19.10;92.50
47618;DHT22;33336;36.728;-4.414;2023-02-15T11:43:19;18.90;92.60
47618;DHT22;33336;36.728;-4.414;2023-02-15T11:48:25;18.60;93.30
47618;DHT22;33336;36.728;-4.414;2023-02-15T11:53:32;19.00;93.40
47618;DHT22;33336;36.728;-4.414;2023-02-15T11:58:40;19.50;92.60
47618;DHT22;33336;36.728;-4.414;2023-02-15T12:03:45;19.90;93.30
47618;DHT22;33336;36.728;-4.414;2023-02-15T12:08:54;20.20;92.90
47618;DHT22;33336;36.728;-4.414;2023-02-15T12:14:01;20.00;92.50
47618;DHT22;33336;36.728;-4.414;2023-02-15T12:19:09;19.50;93.20
47618;DHT22;33336;36.728;-4.414;2023-02-15T12:24:18;20.00;93.10
47618;DHT22;33336;36.728;-4.414;2023-02-15T12:29:26;20.50;92.40
47618;DHT22;33336;36.728;-4.414;2023-02-15T12:34:35;20.80;92.10
47618;DHT22;33336;36.728;-4.414;2023-02-15T12:39:51;20.30;91.80
47618;DHT22;33336;36.728;-4.414;2023-02-15T12:45:00;20.30;92.40
47618;DHT22;33336;36.728;-4.414;2023-02-15T12:50:14;20.50;92.40
47618;DHT22;33336;36.728;-4.414;2023-02-15T12:55:23;20.50;92.20
47618;DHT22;33336;36.728;-4.414;2023-02-15T13:00:28;20.70;92.30
47618;DHT22;33336;36.728;-4.414;2023-02-15T13:05:37;20.00;92.70
47618;DHT22;33336;36.728;-4.414;2023-02-15T13:10:51;19.70;93.10
47618;DHT22;33336;36.728;-4.414;2023-02-15T13:15:58;20.00;93.30
47618;DHT22;33336;36.728;-4.414;2023-02-15T13:21:10;20.20;93.20
47618;DHT22;33336;36.728;-4.414;2023-02-15T13:26:17;20.20;93.60
47618;DHT22;33336;36.728;-4.414;2023-02-15T13:31:26;20.30;93.10
47618;DHT22;33336;36.728;-4.414;2023-02-15T13:36:41;19.90;92.90
47618;DHT22;33336;36.728;-4.414;2023-02-15T13:41:53;20.40;93.50
47618;DHT22;33336;36.728;-4.414;2023-02-15T13:47:13;20.40;93.40
47618;DHT22;33336;36.728;-4.414;2023-02-15T13:52:23;20.80;92.80
47618;DHT22;33336;36.728;-4.414;2023-02-15T14:03:11;21.50;92.30
47618;DHT22;33336;36.728;-4.414;2023-02-15T14:08:31;21.90;91.80
47618;DHT22;33336;36.728;-4.414;2023-02-15T14:19:20;21.60;91.80
47618;DHT22;33336;36.728;-4.414;2023-02-15T14:24:32;21.50;92.30
47618;DHT22;33336;36.728;-4.414;2023-02-15T14:29:49;21.30;92.70
47618;DHT22;33336;36.728;-4.414;2023-02-15T14:34:56;20.90;92.60
47618;DHT22;33336;36.728;-4.414;2023-02-15T14:40:05;20.60;93.50
47618;DHT22;33336;36.728;-4.414;2023-02-15T14:45:30;20.90;93.10
47618;DHT22;33336;36.728;-4.414;2023-02-15T14:50:42;21.60;93.20
47618;DHT22;33336;36.728;-4.414;2023-02-15T14:55:47;22.00;92.70
47618;DHT22;33336;36.728;-4.414;2023-02-15T15:00:50;22.20;92.70
47618;DHT22;33336;36.728;-4.414;2023-02-15T15:05:56;22.30;92.30
47618;DHT22;33336;36.728;-4.414;2023-02-15T15:16:51;23.90;90.80
47618;DHT22;33336;36.728;-4.414;2023-02-15T15:21:56;26.10;89.50
47618;DHT22;33336;36.728;-4.414;2023-02-15T15:32:38;28.80;83.30
47618;DHT22;33336;36.728;-4.414;2023-02-15T15:37:57;29.40;82.00
47618;DHT22;33336;36.728;-4.414;2023-02-15T15:48:40;30.10;79.20
47618;DHT22;33336;36.728;-4.414;2023-02-15T15:53:44;28.50;78.20
47618;DHT22;33336;36.728;-4.414;2023-02-15T15:58:52;28.90;77.90
47618;DHT22;33336;36.728;-4.414;2023-02-15T16:03:58;30.00;78.10
47618;DHT22;33336;36.728;-4.414;2023-02-15T16:09:13;31.30;74.90
47618;DHT22;33336;36.728;-4.414;2023-02-15T16:14:20;29.90;73.80
47618;DHT22;33336;36.728;-4.414;2023-02-15T16:19:30;30.30;75.20
47618;DHT22;33336;36.728;-4.414;2023-02-15T16:24:42;29.60;75.30
47618;DHT22;33336;36.728;-4.414;2023-02-15T16:29:49;29.40;74.70
47618;DHT22;33336;36.728;-4.414;2023-02-15T16:34:57;29.50;73.80
47618;DHT22;33336;36.728;-4.414;2023-02-15T16:40:02;28.40;72.20
47618;DHT22;33336;36.728;-4.414;2023-02-15T16:45:08;27.90;73.30
47618;DHT22;33336;36.728;-4.414;2023-02-15T16:50:19;27.30;74.20
47618;DHT22;33336;36.728;-4.414;2023-02-15T16:55:25;26.20;74.40
47618;DHT22;33336;36.728;-4.414;2023-02-15T17:00:31;26.10;74.80
47618;DHT22;33336;36.728;-4.414;2023-02-15T17:05:44;25.80;75.60
47618;DHT22;33336;36.728;-4.414;2023-02-15T17:11:08;25.30;74.90
47618;DHT22;33336;36.728;-4.414;2023-02-15T17:16:27;24.60;75.50
47618;DHT22;33336;36.728;-4.414;2023-02-15T17:21:42;23.90;74.50
47618;DHT22;33336;36.728;-4.414;2023-02-15T17:26:54;23.40;74.70
47618;DHT22;33336;36.728;-4.414;2023-02-15T17:32:03;23.70;74.70
47618;DHT22;33336;36.728;-4.414;2023-02-15T17:37:12;23.10;74.10
47618;DHT22;33336;36.728;-4.414;2023-02-15T17:42:16;22.10;75.90
47618;DHT22;33336;36.728;-4.414;2023-02-15T17:47:21;21.60;77.10
47618;DHT22;33336;36.728;-4.414;2023-02-15T17:52:30;21.80;77.90
47618;DHT22;33336;36.728;-4.414;2023-02-15T17:57:33;21.30;79.10
47618;DHT22;33336;36.728;-4.414;2023-02-15T18:02:37;21.00;80.00
47618;DHT22;33336;36.728;-4.414;2023-02-15T18:07:58;20.80;80.90
47618;DHT22;33336;36.728;-4.414;2023-02-15T18:13:19;20.60;81.80
47618;DHT22;33336;36.728;-4.414;2023-02-15T18:18:22;20.30;83.30
47618;DHT22;33336;36.728;-4.414;2023-02-15T18:23:27;20.10;85.00
47618;DHT22;33336;36.728;-4.414;2023-02-15T18:28:32;20.00;85.90
47618;DHT22;33336;36.728;-4.414;2023-02-15T18:33:38;19.70;87.50
47618;DHT22;33336;36.728;-4.414;2023-02-15T18:38:43;19.50;88.40
47618;DHT22;33336;36.728;-4.414;2023-02-15T18:43:47;19.40;88.40
47618;DHT22;33336;36.728;-4.414;2023-02-15T18:48:50;19.20;88.50
47618;DHT22;33336;36.728;-4.414;2023-02-15T18:54:00;18.90;88.90
47618;DHT22;33336;36.728;-4.414;2023-02-15T18:59:03;18.70;89.10
47618;DHT22;33336;36.728;-4.414;2023-02-15T19:04:06;18.30;90.10
47618;DHT22;33336;36.728;-4.414;2023-02-15T19:09:14;18.30;90.50
47618;DHT22;33336;36.728;-4.414;2023-02-15T19:14:28;18.30;90.80
47618;DHT22;33336;36.728;-4.414;2023-02-15T19:19:32;18.00;91.90
47618;DHT22;33336;36.728;-4.414;2023-02-15T19:24:38;18.00;92.00
47618;DHT22;33336;36.728;-4.414;2023-02-15T19:29:42;18.00;92.50
47618;DHT22;33336;36.728;-4.414;2023-02-15T19:34:48;18.00;92.50
47618;DHT22;33336;36.728;-4.414;2023-02-15T19:39:53;17.80;93.00
47618;DHT22;33336;36.728;-4.414;2023-02-15T19:44:56;17.80;93.60
47618;DHT22;33336;36.728;-4.414;2023-02-15T19:50:02;17.70;94.60
47618;DHT22;33336;36.728;-4.414;2023-02-15T19:55:15;17.60;95.00
47618;DHT22;33336;36.728;-4.414;2023-02-15T20:00:20;17.40;96.30
47618;DHT22;33336;36.728;-4.414;2023-02-15T20:05:24;17.30;96.30
47618;DHT22;33336;36.728;-4.414;2023-02-15T20:10:30;17.00;97.20
47618;DHT22;33336;36.728;-4.414;2023-02-15T20:15:34;17.00;97.70
47618;DHT22;33336;36.728;-4.414;2023-02-15T20:20:40;17.20;97.50
47618;DHT22;33336;36.728;-4.414;2023-02-15T20:25:46;17.20;98.10
47618;DHT22;33336;36.728;-4.414;2023-02-15T20:30:49;16.80;99.50
47618;DHT22;33336;36.728;-4.414;2023-02-15T20:35:53;17.00;99.80
47618;DHT22;33336;36.728;-4.414;2023-02-15T20:40:59;17.10;99.90
47618;DHT22;33336;36.728;-4.414;2023-02-15T20:46:22;17.20;99.90
47618;DHT22;33336;36.728;-4.414;2023-02-15T20:51:25;17.30;99.90
47618;DHT22;33336;36.728;-4.414;2023-02-15T20:56:30;17.30;99.90
47618;DHT22;33336;36.728;-4.414;2023-02-15T21:01:35;17.10;99.90
47618;DHT22;33336;36.728;-4.414;2023-02-15T21:06:38;17.00;99.90
47618;DHT22;33336;36.728;-4.414;2023-02-15T21:11:43;17.10;99.90
47618;DHT22;33336;36.728;-4.414;2023-02-15T21:16:47;17.10;99.90
47618;DHT22;33336;36.728;-4.414;2023-02-15T21:21:54;17.00;99.90
47618;DHT22;33336;36.728;-4.414;2023-02-15T21:27:02;17.00;99.90
47618;DHT22;33336;36.728;-4.414;2023-02-15T21:32:09;16.90;99.90
47618;DHT22;33336;36.728;-4.414;2023-02-15T21:37:27;16.80;99.90
47618;DHT22;33336;36.728;-4.414;2023-02-15T21:42:33;16.80;99.90
47618;DHT22;33336;36.728;-4.414;2023-02-15T21:47:56;16.80;99.90
47618;DHT22;33336;36.728;-4.414;2023-02-15T21:52:59;16.70;99.90
47618;DHT22;33336;36.728;-4.414;2023-02-15T21:58:15;16.70;99.90
47618;DHT22;33336;36.728;-4.414;2023-02-15T22:03:18;16.70;99.90
47618;DHT22;33336;36.728;-4.414;2023-02-15T22:08:21;16.60;99.90
47618;DHT22;33336;36.728;-4.414;2023-02-15T22:13:27;16.60;99.90
47618;DHT22;33336;36.728;-4.414;2023-02-15T22:18:32;16.50;99.90
47618;DHT22;33336;36.728;-4.414;2023-02-15T22:23:35;16.60;99.90
47618;DHT22;33336;36.728;-4.414;2023-02-15T22:28:42;16.50;99.90
47618;DHT22;33336;36.728;-4.414;2023-02-15T22:33:45;16.50;99.90
47618;DHT22;33336;36.728;-4.414;2023-02-15T22:38:53;16.40;99.90
47618;DHT22;33336;36.728;-4.414;2023-02-15T22:43:58;16.30;99.90
47618;DHT22;33336;36.728;-4.414;2023-02-15T22:49:01;16.00;99.90
47618;DHT22;33336;36.728;-4.414;2023-02-15T22:54:04;15.90;99.90
47618;DHT22;33336;36.728;-4.414;2023-02-15T22:59:16;15.80;99.90
47618;DHT22;33336;36.728;-4.414;2023-02-15T23:04:23;15.60;99.90
47618;DHT22;33336;36.728;-4.414;2023-02-15T23:09:26;15.50;99.90
47618;DHT22;33336;36.728;-4.414;2023-02-15T23:14:32;15.60;99.90
47618;DHT22;33336;36.728;-4.414;2023-02-15T23:19:35;15.70;99.90
47618;DHT22;33336;36.728;-4.414;2023-02-15T23:24:38;15.60;99.90
47618;DHT22;33336;36.728;-4.414;2023-02-15T23:29:43;15.90;99.90
47618;DHT22;33336;36.728;-4.414;2023-02-15T23:34:46;15.80;99.40
47618;DHT22;33336;36.728;-4.414;2023-02-15T23:39:51;15.70;99.10
47618;DHT22;33336;36.728;-4.414;2023-02-15T23:45:20;15.70;98.90
47618;DHT22;33336;36.728;-4.414;2023-02-15T23:50:25;15.60;98.50
47618;DHT22;33336;36.728;-4.414;2023-02-15T23:55:33;15.50;98.90
